Flight Track Log - Related Links

Times and Time Zones

All times are in EDT time to prevent confusion due to time zone crossing. See the N762NC flight status page for this flight to view local times or setup timezone preferences in your user account.

Time Position Orientation Groundspeed Altitude Reporting Facility
EDT Latitude Longitude Course Direction KTS MPH feet Rate Location/Type
Sun 04:56:40 PM 33.6222 -84.4953 128° Southeast 411 473 2,500  Level Atlanta Center
Sun 04:57:40 PM 33.5886 -84.5750 243° Southwest 326 375 5,000 2,450 Climbing Atlanta Center
Sun 04:58:40 PM 33.5278 -84.5994 199° South 252 290 7,400 2,150 Climbing Atlanta Center
Sun 04:59:00 PM 33.2355 -84.2614 163° South  Level FlightAware Approximate
Sun 04:59:40 PM 33.4550 -84.5792 167° South 279 321 9,300  Level Atlanta Center
Sun 05:00:00 PM 33.1352 -84.2249 163° South  Level FlightAware Approximate
Sun 05:00:40 PM 33.3906 -84.5067 137° Southeast 299 344 10,800  Level Atlanta Center
Sun 05:01:00 PM 33.0461 -84.1690 128° Southeast  Level FlightAware Approximate
Sun 05:01:40 PM 33.3178 -84.4217 136° Southeast 340 391 12,300  Level Atlanta Center
Sun 05:02:40 PM 33.2450 -84.3269 133° Southeast 368 423 14,300 1,900 Climbing Atlanta Center
Sun 05:03:40 PM 33.1678 -84.2350 135° Southeast 388 447 16,100 1,800 Climbing Atlanta Center
Sun 05:04:40 PM 33.1408 -84.1058 104° East 397 457 17,900 1,650 Climbing Atlanta Center
Sun 05:05:40 PM 33.1264 -83.9719 97° East 397 457 19,400 1,500 Climbing Atlanta Center
Sun 05:06:40 PM 33.1053 -83.8281 100° East 418 481 20,900 1,500 Climbing Atlanta Center
Sun 05:07:40 PM 33.0653 -83.6769 107° East 423 487 22,400 1,050 Climbing Atlanta Center
Sun 05:08:40 PM 33.0272 -83.5383 108° East 436 502 23,000 300 Climbing Atlanta Center
Sun 05:09:40 PM 32.9869 -83.3925 108° East 451 519 23,000  Level Atlanta Center
Sun 05:10:40 PM 32.9464 -83.2492 109° East 451 519 23,000  Level Atlanta Center
Sun 05:11:40 PM 32.9078 -83.1158 109° East 462 532 23,000  Level Atlanta Center
Sun 05:12:40 PM 32.8692 -82.9728 108° East 462 532 23,000  Level Atlanta Center
Sun 05:13:40 PM 32.8197 -82.8303 112° Southeast 462 532 23,000  Level Atlanta Center
Sun 05:14:40 PM 32.7661 -82.6875 114° Southeast 468 539 23,000  Level Atlanta Center
Sun 05:15:40 PM 32.6892 -82.5333 121° Southeast 481 554 23,000 -708 Level Atlanta Center
Sun 05:17:55 PM 32.5428 -82.2322 120° Southeast 482 555 20,700 -1,692 Descending Jacksonville Center
Sun 05:18:55 PM 32.4836 -82.1044 119° Southeast 459 528 17,500 -3,350 Descending Jacksonville Center
Sun 05:19:55 PM 32.4347 -81.9819 115° Southeast 419 482 14,000 -3,000 Descending Jacksonville Center
Sun 05:20:55 PM 32.3961 -81.8542 110° East 406 467 11,500 -1,750 Descending Jacksonville Center
Sun 05:21:55 PM 32.3681 -81.7439 107° East 397 457 10,500 -750 Descending Jacksonville Center
Sun 05:22:55 PM 32.3272 -81.6217 112° Southeast 371 427 10,000 -350 Descending Jacksonville Center
Sun 05:23:55 PM 32.2886 -81.5286 116° Southeast 351 404 9,800 -950 Descending Jacksonville Center
Sun 05:24:55 PM 32.2561 -81.4283 111° Southeast 313 360 8,100 -1,600 Descending Jacksonville Center
Sun 05:25:55 PM 32.2281 -81.3356 110° East 303 349 6,600 -1,450 Descending Jacksonville Center
Sun 05:26:55 PM 32.2019 -81.2500 110° East 284 327 5,200 -1,500 Descending Jacksonville Center
Sun 05:27:55 PM 32.1947 -81.1814 97° East 241 277 3,600 -1,650 Descending Jacksonville Center
Sun 05:28:55 PM 32.1875 -81.1103 97° East 224 258 1,900 -1,050 Descending Jacksonville Center
Sun 05:29:55 PM 32.1372 -81.1017 172° South 167 192 1,500 -400 Descending Jacksonville Center

Login

Don't have an account? Register now (free) for customized features, flight alerts, and more!